Time;durP1;ratioP1;P1;durP2;ratioP2;P2;SDS_P1;SDS_P2;PMS_P1;PMS_P2;Temp;Humidity;BMP_temperature;BMP_pressure;BME280_temperature;BME280_humidity;BME280_pressure;Samples;Min_cycle;Max_cycle;Signal;HPM_P1;HPM_P2
2023/12/22 00:01:11;;;;;;;2.63;0.90;;;7.70;93.00;;;;;;5028605;28;20514;-64
2023/12/22 00:03:37;;;;;;;2.13;0.90;;;7.70;93.00;;;;;;5024179;28;20040;-65
2023/12/22 00:06:03;;;;;;;3.88;1.23;;;7.80;93.00;;;;;;5023791;28;20021;-64
2023/12/22 00:08:28;;;;;;;2.88;0.80;;;7.80;93.00;;;;;;5023367;28;20034;-65
2023/12/22 00:10:54;;;;;;;3.10;0.95;;;7.80;92.90;;;;;;5024176;28;20565;-65
2023/12/22 00:13:19;;;;;;;1.67;0.95;;;7.80;92.90;;;;;;5025211;28;20471;-64
2023/12/22 00:15:45;;;;;;;2.25;1.00;;;7.80;92.90;;;;;;5017440;28;20032;-65
2023/12/22 00:18:10;;;;;;;2.10;0.80;;;7.80;92.90;;;;;;5027793;28;20024;-65
2023/12/22 00:20:36;;;;;;;4.72;0.80;;;7.80;92.80;;;;;;5022067;28;20034;-66
2023/12/22 00:23:02;;;;;;;1.52;0.70;;;7.80;92.90;;;;;;5024597;28;20022;-65
2023/12/22 00:25:28;;;;;;;1.90;0.80;;;7.90;92.90;;;;;;5020003;28;20033;-66
2023/12/22 00:27:54;;;;;;;1.38;0.70;;;7.90;92.90;;;;;;5024682;28;20036;-65
2023/12/22 00:30:20;;;;;;;3.80;0.90;;;7.90;92.90;;;;;;5025791;28;20399;-65
2023/12/22 00:32:45;;;;;;;2.45;0.90;;;7.90;93.00;;;;;;5025165;28;21857;-65
2023/12/22 00:35:11;;;;;;;6.50;1.10;;;7.90;93.00;;;;;;5024037;28;20036;-66
2023/12/22 00:37:36;;;;;;;4.22;1.02;;;7.90;93.00;;;;;;5017851;28;20053;-64
2023/12/22 00:40:05;;;;;;;4.78;1.27;;;7.80;93.00;;;;;;5019051;28;20019;-65
2023/12/22 00:42:30;;;;;;;3.92;1.00;;;7.70;93.00;;;;;;5017963;28;20041;-66
2023/12/22 00:44:56;;;;;;;4.10;0.95;;;7.60;93.10;;;;;;5018298;28;20064;-65
2023/12/22 00:47:22;;;;;;;4.00;0.90;;;7.50;93.20;;;;;;5016222;28;20038;-66
2023/12/22 00:49:47;;;;;;;1.33;1.17;;;7.50;93.40;;;;;;5018459;28;20396;-66
2023/12/22 00:52:13;;;;;;;3.85;0.90;;;7.40;93.40;;;;;;5016813;28;20480;-65
2023/12/22 00:54:38;;;;;;;2.22;0.68;;;7.40;93.40;;;;;;5024834;28;20087;-66
2023/12/22 00:57:04;;;;;;;1.58;0.70;;;7.30;93.50;;;;;;5017339;28;20147;-66
2023/12/22 00:59:30;;;;;;;3.85;1.00;;;7.30;93.50;;;;;;5013935;28;20396;-64
2023/12/22 01:01:56;;;;;;;3.83;0.80;;;7.30;93.60;;;;;;5017322;28;20472;-66
2023/12/22 01:04:21;;;;;;;4.53;1.33;;;7.20;93.60;;;;;;5018458;28;20018;-65
2023/12/22 01:06:47;;;;;;;1.40;0.70;;;7.20;93.70;;;;;;5017757;28;20069;-63
2023/12/22 01:09:14;;;;;;;2.30;0.90;;;7.20;93.70;;;;;;5018819;28;20400;-66
2023/12/22 01:11:40;;;;;;;0.88;0.73;;;7.30;93.80;;;;;;5016297;28;20022;-64
2023/12/22 01:14:06;;;;;;;2.08;1.00;;;7.20;93.70;;;;;;5022005;28;20108;-64
2023/12/22 01:16:33;;;;;;;1.60;0.85;;;7.20;93.70;;;;;;5014104;28;20037;-65
2023/12/22 01:18:58;;;;;;;3.63;0.85;;;7.20;93.70;;;;;;5015592;28;20034;-65
2023/12/22 01:21:24;;;;;;;1.30;0.70;;;7.20;93.80;;;;;;5013949;28;20036;-66
2023/12/22 01:23:49;;;;;;;3.22;0.80;;;7.20;93.80;;;;;;5021189;28;20030;-66
2023/12/22 01:26:15;;;;;;;1.05;0.70;;;7.10;94.10;;;;;;5026429;28;20031;-63
2023/12/22 01:28:41;;;;;;;4.95;1.00;;;7.10;93.90;;;;;;5023691;28;20041;-66
2023/12/22 01:31:06;;;;;;;0.93;0.70;;;7.10;93.90;;;;;;5014370;28;20017;-65
2023/12/22 01:33:32;;;;;;;2.15;0.85;;;7.10;93.90;;;;;;5023823;28;20048;-66
2023/12/22 01:35:57;;;;;;;3.08;0.90;;;7.10;93.90;;;;;;5020596;28;20056;-66
2023/12/22 01:38:23;;;;;;;2.28;0.80;;;7.10;93.90;;;;;;5022830;28;20025;-66
2023/12/22 01:40:49;;;;;;;2.22;0.80;;;7.10;93.90;;;;;;5016374;28;20037;-65
2023/12/22 01:43:16;;;;;;;3.03;1.00;;;7.10;93.90;;;;;;5019086;28;20057;-65
2023/12/22 01:45:45;;;;;;;2.30;0.70;;;7.20;93.90;;;;;;5021655;28;20161;-65
2023/12/22 01:48:11;;;;;;;1.33;0.65;;;7.20;93.80;;;;;;5025134;28;20025;-65
2023/12/22 01:50:39;;;;;;;1.20;0.70;;;7.20;93.80;;;;;;5017433;28;20120;-65
2023/12/22 01:53:04;;;;;;;1.20;0.68;;;7.20;93.80;;;;;;5018881;28;20432;-66
2023/12/22 01:55:30;;;;;;;2.05;0.60;;;7.20;93.80;;;;;;5028938;28;20056;-66
2023/12/22 01:57:56;;;;;;;1.70;0.70;;;7.20;93.80;;;;;;5012806;28;20030;-65
2023/12/22 02:00:22;;;;;;;3.47;0.90;;;7.10;93.90;;;;;;5009847;28;20475;-62
2023/12/22 02:02:48;;;;;;;3.03;0.90;;;7.20;93.90;;;;;;5019832;28;20517;-66
2023/12/22 02:05:14;;;;;;;1.83;1.00;;;7.10;94.00;;;;;;5012617;28;20060;-65
2023/12/22 02:07:41;;;;;;;3.95;1.23;;;7.10;94.00;;;;;;5011508;28;20125;-62
2023/12/22 02:10:10;;;;;;;4.05;0.93;;;7.10;94.10;;;;;;5020755;28;20067;-65
2023/12/22 02:12:37;;;;;;;2.17;0.80;;;7.10;94.10;;;;;;5017911;28;20039;-66
2023/12/22 02:15:05;;;;;;;4.55;0.90;;;7.10;94.10;;;;;;5015055;28;20045;-64
2023/12/22 02:17:45;;;;;;;2.95;1.00;;;7.20;94.10;;;;;;5021962;28;20651;-64
2023/12/22 02:20:11;;;;;;;3.33;0.82;;;7.10;94.10;;;;;;5019348;28;20018;-64
2023/12/22 02:22:37;;;;;;;2.67;0.98;;;7.10;94.10;;;;;;5015937;28;20037;-66
2023/12/22 02:25:03;;;;;;;2.55;0.88;;;7.20;94.10;;;;;;5012099;28;20750;-65
2023/12/22 02:27:34;;;;;;;1.67;0.75;;;7.20;94.10;;;;;;5020177;28;20116;-64
2023/12/22 02:30:14;;;;;;;2.10;0.65;;;7.20;94.10;;;;;;5018832;28;20668;-65
2023/12/22 02:32:47;;;;;;;1.70;0.70;;;7.20;94.10;;;;;;5015978;28;20029;-65
2023/12/22 02:35:19;;;;;;;4.20;0.82;;;7.20;94.10;;;;;;5017369;28;20038;-65
2023/12/22 02:37:47;;;;;;;2.22;0.70;;;7.20;94.20;;;;;;5019947;28;20022;-61
2023/12/22 02:40:17;;;;;;;2.55;0.70;;;7.20;94.20;;;;;;5019094;28;20025;-65
2023/12/22 02:42:44;;;;;;;3.53;0.80;;;7.30;94.30;;;;;;5012562;28;20037;-64
2023/12/22 02:45:17;;;;;;;3.78;1.00;;;7.30;94.20;;;;;;5019868;28;20603;-66
2023/12/22 02:47:43;;;;;;;6.57;0.95;;;7.30;94.30;;;;;;5023364;28;20025;-66
2023/12/22 02:50:09;;;;;;;4.65;1.33;;;7.30;94.20;;;;;;5013651;28;20079;-65
2023/12/22 02:52:35;;;;;;;2.60;0.80;;;7.40;94.20;;;;;;5010656;28;20030;-65
2023/12/22 02:55:01;;;;;;;3.22;0.70;;;7.40;94.20;;;;;;5014739;28;20045;-65
2023/12/22 02:57:27;;;;;;;1.50;0.70;;;7.40;94.20;;;;;;5022819;28;20039;-63
2023/12/22 02:59:53;;;;;;;2.67;0.80;;;7.40;94.30;;;;;;5017443;28;20108;-65
2023/12/22 03:02:19;;;;;;;3.75;0.80;;;7.40;94.30;;;;;;5023595;28;20017;-65
2023/12/22 03:04:48;;;;;;;2.60;1.00;;;7.40;94.30;;;;;;5017000;28;20040;-65
2023/12/22 03:07:14;;;;;;;2.22;0.80;;;7.40;94.30;;;;;;5013638;28;20553;-66
2023/12/22 03:09:41;;;;;;;2.78;0.85;;;7.40;94.40;;;;;;5021233;28;20632;-65
2023/12/22 03:12:07;;;;;;;3.08;0.80;;;7.40;94.40;;;;;;5014650;28;20022;-65
2023/12/22 03:14:34;;;;;;;2.90;0.95;;;7.40;94.40;;;;;;5013083;28;20558;-66
2023/12/22 03:17:03;;;;;;;4.57;0.98;;;7.50;94.50;;;;;;5013359;28;20239;-64
2023/12/22 03:19:29;;;;;;;2.90;1.08;;;7.40;94.50;;;;;;5017298;28;20026;-65
2023/12/22 03:21:56;;;;;;;4.45;1.25;;;7.40;94.50;;;;;;5011598;28;20116;-65
2023/12/22 03:24:22;;;;;;;1.63;0.90;;;7.30;94.20;;;;;;5016546;28;20013;-66
2023/12/22 03:26:48;;;;;;;2.80;0.90;;;7.10;94.00;;;;;;5020036;28;20030;-64
2023/12/22 03:29:14;;;;;;;3.92;0.77;;;6.80;94.10;;;;;;5017501;28;20052;-65
2023/12/22 03:31:40;;;;;;;1.60;0.70;;;6.60;94.20;;;;;;5027942;28;20033;-64
2023/12/22 03:34:06;;;;;;;1.65;0.70;;;6.50;94.50;;;;;;5028265;28;20022;-66
2023/12/22 03:36:31;;;;;;;4.10;1.05;;;6.30;94.60;;;;;;5022336;28;20022;-66
2023/12/22 03:38:57;;;;;;;1.23;0.60;;;6.30;95.00;;;;;;5019842;28;20021;-65
2023/12/22 03:41:23;;;;;;;1.65;0.68;;;6.20;94.80;;;;;;5020992;28;20045;-64
2023/12/22 03:43:49;;;;;;;2.88;0.77;;;6.10;94.80;;;;;;5020228;28;20022;-65
2023/12/22 03:46:16;;;;;;;1.65;0.70;;;6.10;94.90;;;;;;5029785;28;20104;-65
2023/12/22 03:48:42;;;;;;;0.70;0.70;;;6.10;95.00;;;;;;5025788;28;20065;-64
2023/12/22 03:51:10;;;;;;;1.17;0.70;;;6.20;95.00;;;;;;5019623;28;20030;-65
2023/12/22 03:53:36;;;;;;;1.73;0.60;;;6.20;95.00;;;;;;5017583;28;20144;-64
2023/12/22 03:56:01;;;;;;;2.72;0.90;;;6.10;95.00;;;;;;5017910;28;20369;-65
2023/12/22 03:58:27;;;;;;;1.58;0.70;;;6.10;95.00;;;;;;5023448;28;20721;-64
2023/12/22 04:00:53;;;;;;;1.95;0.90;;;6.10;95.10;;;;;;5017781;28;20053;-66
2023/12/22 04:03:19;;;;;;;4.13;0.80;;;6.10;95.10;;;;;;5021987;28;20053;-64
2023/12/22 04:05:44;;;;;;;2.17;0.90;;;6.10;95.10;;;;;;5022508;28;20025;-65
2023/12/22 04:08:10;;;;;;;3.95;0.90;;;6.10;95.20;;;;;;5021654;28;20033;-65
2023/12/22 04:10:36;;;;;;;3.80;0.90;;;6.10;95.30;;;;;;5024913;28;20017;-67
2023/12/22 04:13:02;;;;;;;1.05;0.85;;;6.10;95.30;;;;;;5021179;28;20095;-67
2023/12/22 04:15:28;;;;;;;2.95;0.90;;;6.10;95.40;;;;;;5021084;28;20060;-67
2023/12/22 04:17:54;;;;;;;3.20;1.15;;;6.10;95.50;;;;;;5020139;28;20075;-67
2023/12/22 04:20:19;;;;;;;3.75;0.95;;;6.20;95.60;;;;;;5016359;28;20022;-66
2023/12/22 04:22:45;;;;;;;1.00;0.73;;;6.30;95.60;;;;;;5014965;28;20029;-64
2023/12/22 04:25:10;;;;;;;1.60;1.25;;;6.30;95.60;;;;;;5024560;28;20041;-66
2023/12/22 04:27:36;;;;;;;4.65;1.05;;;6.40;95.50;;;;;;5016465;28;20137;-64
2023/12/22 04:30:01;;;;;;;3.30;0.90;;;6.40;95.60;;;;;;5013901;28;20032;-64
2023/12/22 04:32:27;;;;;;;1.80;0.80;;;6.50;95.50;;;;;;5017077;28;20686;-63
2023/12/22 04:34:52;;;;;;;4.90;0.80;;;6.50;95.50;;;;;;5015517;28;20025;-66
2023/12/22 04:37:18;;;;;;;5.30;1.00;;;6.60;95.50;;;;;;5014802;28;20013;-63
2023/12/22 04:39:44;;;;;;;2.38;0.82;;;6.60;95.40;;;;;;5016377;28;20504;-63
2023/12/22 04:42:09;;;;;;;1.77;1.10;;;6.70;95.40;;;;;;5018341;28;20657;-65
2023/12/22 04:44:35;;;;;;;4.13;1.15;;;6.70;95.50;;;;;;5024514;28;20084;-64
2023/12/22 04:47:01;;;;;;;3.50;0.80;;;6.70;95.50;;;;;;5019483;28;20037;-66
2023/12/22 04:49:26;;;;;;;2.35;0.90;;;6.80;95.50;;;;;;5026488;28;20014;-66
2023/12/22 04:51:52;;;;;;;3.63;1.17;;;6.90;95.50;;;;;;5016303;28;20087;-67
2023/12/22 04:54:18;;;;;;;1.85;0.90;;;6.90;95.40;;;;;;5021943;28;20473;-65
2023/12/22 04:56:43;;;;;;;5.97;1.10;;;6.90;95.40;;;;;;5024621;28;20028;-66
2023/12/22 04:59:09;;;;;;;3.35;1.00;;;7.00;95.40;;;;;;5014417;28;20480;-65
2023/12/22 05:01:34;;;;;;;4.28;1.17;;;7.10;95.40;;;;;;5023154;28;20037;-66
2023/12/22 05:04:01;;;;;;;7.10;1.20;;;7.10;95.40;;;;;;5016625;28;20056;-67
2023/12/22 05:06:28;;;;;;;3.10;0.90;;;7.20;95.40;;;;;;5019809;28;20022;-66
2023/12/22 05:08:54;;;;;;;4.07;1.30;;;7.20;95.40;;;;;;5013092;28;20038;-66
2023/12/22 05:11:21;;;;;;;8.30;1.40;;;7.20;95.30;;;;;;5019668;28;20707;-66
2023/12/22 05:13:46;;;;;;;3.58;1.10;;;7.20;95.30;;;;;;5012581;28;20504;-67
2023/12/22 05:16:12;;;;;;;2.35;0.88;;;7.20;95.40;;;;;;5021816;28;20033;-66
2023/12/22 05:18:38;;;;;;;4.82;1.15;;;7.20;95.30;;;;;;5026131;28;20541;-66
2023/12/22 05:21:04;;;;;;;4.40;1.00;;;7.30;95.40;;;;;;5013346;28;20065;-65
2023/12/22 05:23:29;;;;;;;1.98;0.80;;;7.30;95.30;;;;;;5014545;28;20488;-65
2023/12/22 05:25:55;;;;;;;3.88;0.90;;;7.30;95.30;;;;;;5018421;28;20029;-66
2023/12/22 05:28:20;;;;;;;3.72;1.10;;;7.30;95.40;;;;;;5020370;28;20072;-65
2023/12/22 05:30:47;;;;;;;2.15;0.90;;;7.30;95.40;;;;;;5018582;28;20107;-64
2023/12/22 05:33:12;;;;;;;2.45;0.80;;;7.30;95.40;;;;;;5022129;28;20053;-64
2023/12/22 05:35:38;;;;;;;1.88;0.80;;;7.30;95.40;;;;;;5015439;28;20463;-64
2023/12/22 05:38:04;;;;;;;1.65;0.77;;;7.30;95.40;;;;;;5026309;28;20037;-65
2023/12/22 05:40:31;;;;;;;3.70;1.00;;;7.30;95.40;;;;;;5015905;28;20018;-65
2023/12/22 05:42:56;;;;;;;2.50;0.80;;;7.40;95.50;;;;;;5024737;28;20430;-65
2023/12/22 05:45:24;;;;;;;0.88;0.70;;;7.40;95.50;;;;;;5012630;28;20034;-65
2023/12/22 05:47:50;;;;;;;1.38;0.60;;;7.40;95.50;;;;;;5014241;28;20030;-66
2023/12/22 05:50:16;;;;;;;2.33;0.73;;;7.40;95.50;;;;;;5011437;28;20034;-64
2023/12/22 05:52:42;;;;;;;1.60;0.70;;;7.40;95.50;;;;;;5018802;28;20034;-65
2023/12/22 05:55:08;;;;;;;1.52;0.80;;;7.50;95.50;;;;;;5015838;28;20038;-65
2023/12/22 05:57:34;;;;;;;1.58;0.70;;;7.40;95.50;;;;;;5014527;28;20026;-66
2023/12/22 05:59:59;;;;;;;1.10;0.52;;;7.50;95.50;;;;;;5019206;28;20036;-67
2023/12/22 06:02:25;;;;;;;0.88;0.57;;;7.50;95.50;;;;;;5026092;28;20017;-67
2023/12/22 06:04:51;;;;;;;1.33;0.60;;;7.50;95.50;;;;;;5024572;28;20031;-67
2023/12/22 06:07:16;;;;;;;3.45;1.13;;;7.50;95.50;;;;;;5019136;28;20033;-65
2023/12/22 06:09:42;;;;;;;4.57;1.55;;;7.50;95.50;;;;;;5017826;28;20224;-67
2023/12/22 06:12:07;;;;;;;3.80;0.93;;;7.50;95.50;;;;;;5014475;28;20514;-66
2023/12/22 06:14:34;;;;;;;2.33;1.08;;;7.50;95.60;;;;;;5021179;28;20036;-65
2023/12/22 06:17:00;;;;;;;2.97;0.88;;;7.50;95.60;;;;;;5016663;28;20044;-66
2023/12/22 06:19:28;;;;;;;2.30;0.70;;;7.60;95.50;;;;;;5020650;28;20034;-65
2023/12/22 06:21:54;;;;;;;5.50;0.90;;;7.60;95.50;;;;;;5013684;28;20033;-66
2023/12/22 06:24:19;;;;;;;1.83;0.80;;;7.60;95.50;;;;;;5014914;28;20636;-65
2023/12/22 06:26:45;;;;;;;3.13;0.90;;;7.70;95.50;;;;;;5023895;28;20041;-66
2023/12/22 06:29:10;;;;;;;1.73;0.68;;;7.70;95.50;;;;;;5023062;28;20026;-65
2023/12/22 06:31:36;;;;;;;3.30;1.20;;;7.80;95.40;;;;;;5024057;28;20062;-68
2023/12/22 06:34:02;;;;;;;2.40;1.20;;;7.80;95.40;;;;;;5018904;28;20029;-65
2023/12/22 06:36:29;;;;;;;1.98;0.90;;;7.80;95.40;;;;;;5015796;28;21021;-66
2023/12/22 06:38:57;;;;;;;4.20;1.00;;;7.80;95.40;;;;;;5011845;28;20496;-66
2023/12/22 06:41:25;;;;;;;2.95;1.00;;;7.90;95.70;;;;;;5018560;28;20076;-65
2023/12/22 06:43:51;;;;;;;3.40;1.08;;;7.90;95.30;;;;;;5013307;28;20026;-67
2023/12/22 06:46:22;;;;;;;2.30;1.10;;;8.00;95.30;;;;;;5021417;28;20057;-66
2023/12/22 06:48:48;;;;;;;3.40;0.82;;;8.00;95.30;;;;;;5015903;28;20034;-65
2023/12/22 06:51:40;;;;;;;3.28;1.00;;;8.10;95.30;;;;;;5013679;28;20045;-66
2023/12/22 06:54:05;;;;;;;2.17;0.90;;;8.20;95.50;;;;;;5010591;28;20427;-66
2023/12/22 06:56:33;;;;;;;3.20;1.10;;;8.20;95.10;;;;;;5021817;28;20030;-67
2023/12/22 06:58:59;;;;;;;3.45;0.80;;;8.30;95.10;;;;;;5014152;28;20045;-67
2023/12/22 07:01:33;;;;;;;3.83;1.05;;;8.30;95.10;;;;;;5018719;28;20119;-67
2023/12/22 07:04:00;;;;;;;5.78;1.00;;;8.40;95.10;;;;;;5013144;28;20025;-67
2023/12/22 07:06:28;;;;;;;1.35;0.90;;;8.40;95.00;;;;;;5020751;28;20026;-66
2023/12/22 07:09:11;;;;;;;1.00;0.65;;;8.40;95.00;;;;;;5019864;28;20025;-65
2023/12/22 07:11:41;;;;;;;1.80;0.80;;;8.40;95.00;;;;;;5025387;28;20037;-67
2023/12/22 07:14:06;;;;;;;3.22;0.98;;;8.50;95.00;;;;;;5019749;28;20025;-65
2023/12/22 07:16:36;;;;;;;3.50;0.95;;;8.60;95.00;;;;;;5011894;28;20522;-66
2023/12/22 07:19:02;;;;;;;2.70;0.88;;;8.60;95.00;;;;;;5017171;28;20388;-66
2023/12/22 07:21:28;;;;;;;2.90;0.90;;;8.60;94.90;;;;;;5011660;28;20185;-66
2023/12/22 07:23:54;;;;;;;4.20;1.00;;;8.60;94.90;;;;;;5020632;28;20105;-65
2023/12/22 07:26:24;;;;;;;5.63;1.55;;;8.70;94.90;;;;;;5019544;28;20056;-66
2023/12/22 07:28:49;;;;;;;5.80;1.30;;;8.70;94.80;;;;;;5021110;28;20022;-66
2023/12/22 07:31:15;;;;;;;4.85;1.52;;;8.70;94.80;;;;;;5012130;28;20511;-65
2023/12/22 07:33:40;;;;;;;5.90;1.38;;;8.80;94.80;;;;;;5018396;28;20048;-64
2023/12/22 07:36:07;;;;;;;3.97;1.20;;;8.80;94.80;;;;;;5020404;28;20026;-65
2023/12/22 07:38:32;;;;;;;4.07;1.20;;;8.80;94.70;;;;;;5020816;28;20053;-64
2023/12/22 07:40:58;;;;;;;4.40;1.10;;;8.80;94.70;;;;;;5018064;28;20484;-66
2023/12/22 07:43:24;;;;;;;7.88;1.42;;;8.90;94.70;;;;;;5022225;28;20081;-65
2023/12/22 07:45:51;;;;;;;3.63;1.20;;;8.90;94.70;;;;;;5012374;28;20033;-66
2023/12/22 07:48:17;;;;;;;5.95;1.27;;;8.90;94.70;;;;;;5017337;28;20049;-65
2023/12/22 07:50:42;;;;;;;5.47;1.48;;;8.90;94.70;;;;;;5017528;28;20483;-67
2023/12/22 07:53:09;;;;;;;4.38;1.50;;;9.00;94.70;;;;;;5016046;28;20044;-66
2023/12/22 07:55:34;;;;;;;5.35;1.30;;;9.00;94.70;;;;;;5020059;28;20025;-66
2023/12/22 07:58:00;;;;;;;2.33;1.00;;;9.00;94.70;;;;;;5020821;28;20047;-67
2023/12/22 08:00:25;;;;;;;4.05;1.08;;;9.00;94.70;;;;;;5014091;28;20026;-65
2023/12/22 08:02:52;;;;;;;5.30;1.35;;;9.10;94.70;;;;;;5011600;28;20034;-68
2023/12/22 08:05:18;;;;;;;2.35;0.98;;;9.10;94.70;;;;;;5015488;28;20022;-66
2023/12/22 08:07:44;;;;;;;8.98;1.60;;;9.10;94.60;;;;;;5014456;28;20026;-67
2023/12/22 08:10:10;;;;;;;5.38;1.40;;;9.10;94.60;;;;;;5022450;28;20029;-65
2023/12/22 08:12:36;;;;;;;5.63;1.38;;;9.10;94.60;;;;;;5015196;28;20026;-65
2023/12/22 08:15:02;;;;;;;4.85;1.50;;;9.10;94.60;;;;;;5025397;28;20369;-64
2023/12/22 08:17:29;;;;;;;7.13;1.80;;;9.20;94.60;;;;;;5021284;28;20029;-64
2023/12/22 08:19:56;;;;;;;8.52;2.10;;;9.20;94.50;;;;;;5015424;28;20053;-65
2023/12/22 08:22:22;;;;;;;6.15;1.58;;;9.20;94.50;;;;;;5019608;28;20472;-66
2023/12/22 08:24:48;;;;;;;5.40;1.50;;;9.10;94.40;;;;;;5016993;28;20494;-66
2023/12/22 08:27:14;;;;;;;5.95;1.45;;;9.10;94.50;;;;;;5020396;28;20145;-66
2023/12/22 08:29:39;;;;;;;5.65;1.20;;;9.00;94.60;;;;;;5022737;28;20075;-66
2023/12/22 08:32:05;;;;;;;4.75;1.38;;;8.90;94.60;;;;;;5021774;28;20025;-65
2023/12/22 08:34:30;;;;;;;1.58;0.65;;;8.80;94.70;;;;;;5028759;28;20463;-67
2023/12/22 08:36:56;;;;;;;1.27;0.70;;;8.80;94.80;;;;;;5017294;28;20022;-66
2023/12/22 08:39:24;;;;;;;1.85;0.77;;;8.80;94.90;;;;;;5012464;28;20119;-65
2023/12/22 08:41:49;;;;;;;4.45;1.00;;;8.80;95.00;;;;;;5017620;28;20018;-66
2023/12/22 08:44:15;;;;;;;5.30;1.10;;;8.70;95.10;;;;;;5021607;28;20093;-66
2023/12/22 08:46:40;;;;;;;2.92;1.15;;;8.80;95.10;;;;;;5020028;28;20025;-66
2023/12/22 08:49:07;;;;;;;3.70;0.90;;;8.70;95.10;;;;;;5021107;28;20031;-65
2023/12/22 08:51:33;;;;;;;2.72;1.00;;;8.80;95.20;;;;;;5014239;28;20041;-66
2023/12/22 08:53:59;;;;;;;1.70;0.70;;;8.80;95.30;;;;;;5018520;28;20030;-66
2023/12/22 08:56:26;;;;;;;1.67;1.00;;;8.80;95.30;;;;;;5016625;28;20424;-66
2023/12/22 08:58:54;;;;;;;6.57;1.30;;;8.80;95.30;;;;;;5022591;28;20021;-65
2023/12/22 09:01:20;;;;;;;3.92;1.52;;;8.80;95.40;;;;;;5018663;28;20060;-67
2023/12/22 09:03:46;;;;;;;3.42;1.00;;;8.80;95.50;;;;;;5025918;28;20028;-66
2023/12/22 09:06:19;;;;;;;4.72;1.48;;;8.90;95.50;;;;;;5016361;28;20021;-66
2023/12/22 09:08:45;;;;;;;4.72;1.23;;;8.90;95.50;;;;;;5023673;28;20686;-66
2023/12/22 09:11:12;;;;;;;4.53;1.40;;;8.90;95.50;;;;;;5016025;28;20065;-65
2023/12/22 09:13:38;;;;;;;7.13;1.42;;;9.00;95.60;;;;;;5022521;28;20033;-66
2023/12/22 09:16:05;;;;;;;6.90;1.17;;;9.00;95.60;;;;;;5020662;28;20034;-66
2023/12/22 09:18:31;;;;;;;3.83;1.05;;;9.00;95.60;;;;;;5019856;28;20025;-67
2023/12/22 09:20:57;;;;;;;5.55;1.20;;;9.10;95.60;;;;;;5021452;28;20013;-64
2023/12/22 09:23:23;;;;;;;2.75;1.10;;;9.10;95.70;;;;;;5013928;28;20388;-66
2023/12/22 09:25:48;;;;;;;6.03;1.60;;;9.10;95.70;;;;;;5022177;28;20021;-65
2023/12/22 09:28:14;;;;;;;5.13;1.02;;;9.10;95.70;;;;;;5018461;28;20044;-64
2023/12/22 09:30:40;;;;;;;4.53;1.30;;;9.10;95.80;;;;;;5021201;28;20034;-66
2023/12/22 09:33:05;;;;;;;4.45;1.02;;;9.10;95.90;;;;;;5017730;28;20022;-64
2023/12/22 09:35:31;;;;;;;4.28;1.40;;;9.20;96.00;;;;;;5021718;28;20472;-65
2023/12/22 09:37:56;;;;;;;3.38;1.05;;;9.20;96.00;;;;;;5014187;28;20451;-64
2023/12/22 09:40:22;;;;;;;3.85;1.13;;;9.20;96.00;;;;;;5022120;28;20026;-66
2023/12/22 09:42:49;;;;;;;3.20;1.20;;;9.30;96.00;;;;;;5016190;28;20068;-68
2023/12/22 09:45:18;;;;;;;3.42;1.20;;;9.30;96.10;;;;;;5010986;28;20625;-66
2023/12/22 09:47:45;;;;;;;4.88;1.15;;;9.30;96.10;;;;;;5017553;28;20032;-68
2023/12/22 09:50:11;;;;;;;3.78;1.27;;;9.40;96.10;;;;;;5018434;28;20506;-64
2023/12/22 09:52:39;;;;;;;4.32;1.10;;;9.40;96.10;;;;;;5017983;28;20061;-65
2023/12/22 09:55:07;;;;;;;5.00;1.45;;;9.40;96.10;;;;;;5012364;28;20485;-65
2023/12/22 09:57:33;;;;;;;3.05;0.93;;;9.40;96.20;;;;;;5017574;28;20038;-64
2023/12/22 10:00:00;;;;;;;3.47;1.05;;;9.40;96.20;;;;;;5016928;28;20036;-65
2023/12/22 10:02:27;;;;;;;4.65;0.80;;;9.50;96.30;;;;;;5015117;28;20026;-65
2023/12/22 10:04:53;;;;;;;2.55;0.88;;;9.40;96.30;;;;;;5017694;28;20029;-65
2023/12/22 10:07:20;;;;;;;2.13;0.70;;;9.40;96.30;;;;;;5018148;28;20506;-66
2023/12/22 10:09:47;;;;;;;1.40;0.80;;;9.40;96.30;;;;;;5019601;28;20022;-66
2023/12/22 10:12:15;;;;;;;1.73;1.00;;;9.30;96.30;;;;;;5015615;28;20014;-65
2023/12/22 10:14:41;;;;;;;0.85;0.70;;;9.30;96.30;;;;;;5015720;28;20025;-68
2023/12/22 10:17:07;;;;;;;2.30;0.80;;;9.30;96.40;;;;;;5013383;28;20069;-65
2023/12/22 10:19:33;;;;;;;1.58;0.80;;;9.30;96.40;;;;;;5015269;28;20026;-67
2023/12/22 10:21:58;;;;;;;3.85;0.68;;;9.20;96.40;;;;;;5015859;28;20029;-65
2023/12/22 10:24:42;;;;;;;0.82;0.68;;;9.20;96.40;;;;;;5021596;28;20088;-65
2023/12/22 10:27:08;;;;;;;1.88;0.70;;;9.20;96.40;;;;;;5019849;28;20039;-65
2023/12/22 10:29:34;;;;;;;2.60;0.73;;;9.20;96.50;;;;;;5015651;28;20014;-65
2023/12/22 10:32:05;;;;;;;1.42;0.80;;;9.20;96.60;;;;;;5010018;28;20034;-67
2023/12/22 10:34:31;;;;;;;1.15;0.60;;;9.20;96.70;;;;;;5016864;28;20026;-66
2023/12/22 10:36:59;;;;;;;1.67;0.80;;;9.30;96.80;;;;;;5012844;28;20030;-66
2023/12/22 10:39:30;;;;;;;4.32;1.20;;;9.30;96.90;;;;;;5013533;28;20025;-64
2023/12/22 10:41:57;;;;;;;2.55;0.90;;;9.40;96.90;;;;;;5020924;28;20026;-67
2023/12/22 10:44:27;;;;;;;3.40;1.13;;;9.50;96.90;;;;;;5014767;28;20488;-64
2023/12/22 10:46:55;;;;;;;4.68;1.00;;;9.50;97.00;;;;;;5012100;28;20034;-65
2023/12/22 10:49:22;;;;;;;3.28;1.00;;;9.50;97.00;;;;;;5025259;28;20716;-65
2023/12/22 10:51:48;;;;;;;2.25;0.95;;;9.60;97.10;;;;;;5022991;28;20060;-66
2023/12/22 10:54:14;;;;;;;2.20;0.80;;;9.70;97.10;;;;;;5014399;28;20029;-66
2023/12/22 10:56:40;;;;;;;2.25;0.93;;;9.70;97.10;;;;;;5015532;28;20510;-64
2023/12/22 10:59:06;;;;;;;2.05;0.70;;;9.80;97.10;;;;;;5013680;28;20537;-65
2023/12/22 11:01:33;;;;;;;1.40;0.85;;;9.80;97.00;;;;;;5019884;28;20049;-64
2023/12/22 11:04:04;;;;;;;3.05;1.00;;;9.90;97.00;;;;;;5020536;28;20708;-65
2023/12/22 11:06:38;;;;;;;3.00;1.03;;;9.90;97.10;;;;;;5012438;28;20022;-63
2023/12/22 11:09:11;;;;;;;3.22;1.15;;;9.90;97.30;;;;;;5015002;28;20277;-65
2023/12/22 11:11:38;;;;;;;2.63;1.10;;;9.90;97.40;;;;;;5017778;28;20133;-64
2023/12/22 11:14:05;;;;;;;1.63;0.90;;;9.90;97.40;;;;;;5019807;28;20083;-66
2023/12/22 11:16:35;;;;;;;1.42;1.00;;;9.90;97.40;;;;;;5009019;28;20050;-64
2023/12/22 11:19:02;;;;;;;2.45;1.10;;;9.90;97.40;;;;;;5018213;28;20017;-65
2023/12/22 11:21:29;;;;;;;1.73;0.90;;;10.00;97.40;;;;;;5018646;28;20483;-67
2023/12/22 11:23:55;;;;;;;1.25;0.70;;;10.00;97.60;;;;;;5016271;28;20057;-66
2023/12/22 11:26:22;;;;;;;2.90;1.27;;;10.00;97.60;;;;;;5014651;28;20483;-65
2023/12/22 11:28:50;;;;;;;3.80;1.10;;;10.00;97.60;;;;;;5011294;28;20033;-66
2023/12/22 11:31:20;;;;;;;1.42;0.80;;;10.00;97.90;;;;;;5010254;28;20056;-67
2023/12/22 11:33:47;;;;;;;2.75;0.90;;;10.00;97.60;;;;;;5008752;28;20512;-66
2023/12/22 11:36:14;;;;;;;3.65;0.90;;;10.10;97.70;;;;;;5014196;28;20029;-66
2023/12/22 11:38:41;;;;;;;2.72;1.08;;;10.10;97.80;;;;;;5021975;28;20052;-64
2023/12/22 11:41:11;;;;;;;1.58;0.80;;;10.10;97.70;;;;;;5014063;28;20395;-67
2023/12/22 11:43:38;;;;;;;3.40;1.08;;;10.20;97.70;;;;;;5018812;28;20031;-66
2023/12/22 11:46:04;;;;;;;1.67;0.82;;;10.20;97.70;;;;;;5015109;28;20033;-65
2023/12/22 11:48:30;;;;;;;2.05;0.93;;;10.20;97.70;;;;;;5012853;28;20029;-65
2023/12/22 11:50:56;;;;;;;3.72;1.00;;;10.30;97.70;;;;;;5019523;28;20021;-66
2023/12/22 11:53:29;;;;;;;2.33;0.95;;;10.30;97.80;;;;;;5020392;28;20089;-66
2023/12/22 11:56:05;;;;;;;3.30;0.95;;;10.40;97.70;;;;;;5020813;28;20026;-65
2023/12/22 11:58:42;;;;;;;2.60;0.95;;;10.40;97.70;;;;;;5018801;28;20105;-64
2023/12/22 12:01:12;;;;;;;2.17;1.00;;;10.40;97.60;;;;;;5017096;28;20073;-67
2023/12/22 12:04:03;;;;;;;3.30;1.13;;;10.30;97.60;;;;;;5020450;28;20342;-64
2023/12/22 12:06:29;;;;;;;2.28;1.10;;;10.30;97.70;;;;;;5018983;28;20034;-67
2023/12/22 12:09:03;;;;;;;1.30;0.82;;;10.30;97.70;;;;;;5019694;28;20030;-65
2023/12/22 12:12:01;;;;;;;3.97;1.20;;;10.30;97.70;;;;;;5018261;28;20018;-67
2023/12/22 12:14:32;;;;;;;2.38;0.93;;;10.30;97.80;;;;;;5023681;28;20039;-67
2023/12/22 12:17:05;;;;;;;2.73;0.70;;;10.30;97.80;;;;;;5022457;28;20369;-64
2023/12/22 12:19:32;;;;;;;1.60;0.80;;;10.20;97.80;;;;;;5019794;28;20060;-65
2023/12/22 12:21:58;;;;;;;1.83;0.80;;;10.20;97.90;;;;;;5023316;28;20080;-65
2023/12/22 12:24:25;;;;;;;4.03;0.95;;;10.20;98.00;;;;;;5028401;28;20519;-65
2023/12/22 12:26:51;;;;;;;3.60;0.90;;;10.20;98.10;;;;;;5024045;28;20411;-65
2023/12/22 12:29:17;;;;;;;2.20;0.70;;;10.30;98.20;;;;;;5023218;28;20022;-66
2023/12/22 12:31:43;;;;;;;4.13;1.00;;;10.20;98.00;;;;;;5024517;28;20029;-67
2023/12/22 12:34:10;;;;;;;3.20;0.90;;;10.30;98.00;;;;;;5016776;28;20033;-64
2023/12/22 12:36:37;;;;;;;2.08;1.00;;;10.30;98.00;;;;;;5021441;28;20030;-66
2023/12/22 12:39:07;;;;;;;3.63;0.70;;;10.30;98.30;;;;;;5020660;28;20025;-65
2023/12/22 12:41:39;;;;;;;3.13;0.93;;;10.30;98.10;;;;;;5022457;28;20029;-65
2023/12/22 12:44:06;;;;;;;2.13;0.80;;;10.30;98.10;;;;;;5016095;28;20021;-66
2023/12/22 12:46:36;;;;;;;2.65;0.80;;;10.30;98.10;;;;;;5019533;28;20025;-68
2023/12/22 12:49:12;;;;;;;1.85;0.70;;;10.40;98.20;;;;;;5019496;28;20030;-67
2023/12/22 12:51:42;;;;;;;1.58;0.80;;;10.40;98.20;;;;;;5019788;28;20025;-65
2023/12/22 12:54:09;;;;;;;4.55;1.10;;;10.40;98.10;;;;;;5018613;28;20523;-66